Time;durP1;ratioP1;P1;durP2;ratioP2;P2;SDS_P1;SDS_P2;PMS_P1;PMS_P2;Temp;Humidity;BMP_temperature;BMP_pressure;BME280_temperature;BME280_humidity;BME280_pressure;Samples;Min_cycle;Max_cycle;Signal;HPM_P1;HPM_P2
2022/03/23 00:00:51;;;;;;;2.28;0.90;;;;;;;22.38;32.97;102018.75;4200364;28;20082;-65
2022/03/23 00:02:53;;;;;;;1.30;0.65;;;;;;;22.38;33.39;102010.38;4180349;28;20110;-64
2022/03/23 00:04:54;;;;;;;3.47;0.80;;;;;;;22.38;33.34;102012.34;4196041;28;20074;-64
2022/03/23 00:06:56;;;;;;;1.08;0.50;;;;;;;22.36;33.08;102009.81;4199416;28;20048;-64
2022/03/23 00:08:57;;;;;;;1.73;0.95;;;;;;;22.34;33.09;102006.44;4194119;28;20056;-64
2022/03/23 00:10:59;;;;;;;1.00;0.60;;;;;;;22.37;33.18;102016.22;4195249;28;20090;-64
2022/03/23 00:13:01;;;;;;;2.13;0.70;;;;;;;22.35;32.93;102019.28;4197886;28;20438;-65
2022/03/23 00:15:03;;;;;;;1.75;0.90;;;;;;;22.33;33.25;102015.91;4198608;28;20468;-65
2022/03/23 00:17:05;;;;;;;1.50;0.95;;;;;;;22.32;33.18;102020.66;4199242;28;20048;-65
2022/03/23 00:19:09;;;;;;;2.28;0.80;;;;;;;22.33;33.45;102022.34;4199289;28;20044;-66
2022/03/23 00:21:11;;;;;;;5.13;1.05;;;;;;;22.34;33.53;102023.16;4180307;28;20427;-66
2022/03/23 00:23:12;;;;;;;10.23;1.70;;;;;;;22.30;33.55;102022.00;4199218;28;20037;-66
2022/03/23 00:25:17;;;;;;;15.32;2.20;;;;;;;22.30;33.32;102022.84;4198038;28;20041;-65
2022/03/23 00:27:18;;;;;;;12.40;2.63;;;;;;;22.35;33.80;102029.59;4198088;28;20454;-67
2022/03/23 00:29:19;;;;;;;11.57;2.55;;;;;;;22.33;33.65;102032.66;4199416;28;20048;-67
2022/03/23 00:31:22;;;;;;;11.43;2.97;;;;;;;22.34;33.80;102039.91;4196458;28;20102;-64
2022/03/23 00:33:23;;;;;;;24.35;3.30;;;;;;;22.36;33.58;102050.78;4196681;28;20110;-66
2022/03/23 00:35:27;;;;;;;17.23;2.63;;;;;;;22.31;33.75;102049.66;4198187;28;20101;-65
2022/03/23 00:37:29;;;;;;;15.43;3.03;;;;;;;22.34;33.66;102048.28;4197823;28;20506;-67
2022/03/23 00:39:34;;;;;;;14.80;2.88;;;;;;;22.31;33.95;102058.03;4198600;28;20162;-67
2022/03/23 00:41:35;;;;;;;14.18;2.20;;;;;;;22.35;33.56;102066.69;4198077;28;20121;-66
2022/03/23 00:43:36;;;;;;;7.15;1.90;;;;;;;22.36;33.76;102081.47;4199201;28;20033;-64
2022/03/23 00:45:42;;;;;;;14.82;2.40;;;;;;;22.36;33.74;102078.66;4198511;28;20106;-64
2022/03/23 00:47:45;;;;;;;13.15;2.90;;;;;;;22.37;33.64;102088.75;4198981;28;20050;-65
2022/03/23 00:49:46;;;;;;;13.70;2.53;;;;;;;22.32;33.75;102087.59;4198840;28;20048;-65
2022/03/23 00:51:53;;;;;;;12.02;2.67;;;;;;;22.33;33.50;102080.06;4198452;28;20442;-66
2022/03/23 00:53:54;;;;;;;14.80;2.58;;;;;;;22.36;33.43;102095.41;4196403;28;20036;-66
2022/03/23 00:55:56;;;;;;;11.27;2.50;;;;;;;22.35;33.64;102102.09;4198418;28;20045;-64
2022/03/23 00:57:57;;;;;;;9.52;2.47;;;;;;;22.36;33.64;102100.97;4198686;28;20062;-64
2022/03/23 01:00:01;;;;;;;8.90;2.88;;;;;;;22.36;33.59;102109.34;4197982;28;20044;-66
2022/03/23 01:02:05;;;;;;;10.65;2.33;;;;;;;22.36;33.68;102120.50;4197817;28;20048;-66
2022/03/23 01:04:10;;;;;;;12.80;2.53;;;;;;;22.35;33.41;102122.44;4198391;28;20212;-66
2022/03/23 01:06:14;;;;;;;13.23;3.28;;;;;;;22.37;33.81;102138.94;4198266;28;20036;-65
2022/03/23 01:08:15;;;;;;;10.55;2.00;;;;;;;22.37;33.89;102133.38;4199014;28;20094;-65
2022/03/23 01:10:17;;;;;;;9.68;2.10;;;;;;;22.36;33.81;102129.75;4197877;28;20103;-65
2022/03/23 01:12:27;;;;;;;8.98;2.38;;;;;;;22.35;33.80;102132.75;4198106;28;20434;-66
2022/03/23 01:14:28;;;;;;;7.35;1.88;;;;;;;22.37;33.66;102125.00;4180943;28;20037;-64
2022/03/23 01:16:30;;;;;;;9.38;2.60;;;;;;;22.36;33.46;102132.53;4198110;28;20098;-63
2022/03/23 01:18:32;;;;;;;8.60;2.38;;;;;;;22.36;33.92;102131.66;4199393;28;20032;-66
2022/03/23 01:20:34;;;;;;;9.55;2.65;;;;;;;22.35;33.72;102135.56;4199083;28;20029;-66
2022/03/23 01:22:37;;;;;;;13.90;2.03;;;;;;;22.36;33.50;102140.03;4198725;28;20089;-64
2022/03/23 01:24:39;;;;;;;12.20;3.15;;;;;;;22.36;33.46;102142.81;4197887;28;20429;-66
2022/03/23 01:26:40;;;;;;;11.68;2.67;;;;;;;22.36;33.81;102142.81;4197977;28;20044;-64
2022/03/23 01:28:41;;;;;;;12.93;3.03;;;;;;;22.36;33.66;102148.38;4196201;28;20097;-65
2022/03/23 01:30:43;;;;;;;11.45;2.42;;;;;;;22.32;33.79;102151.72;4197890;28;20086;-65
2022/03/23 01:32:45;;;;;;;10.25;2.25;;;;;;;22.34;33.50;102157.03;4197956;28;20460;-64
2022/03/23 01:34:47;;;;;;;7.85;1.98;;;;;;;22.35;33.73;102157.88;4197249;28;20453;-65
2022/03/23 01:36:50;;;;;;;11.80;2.58;;;;;;;22.35;33.53;102163.44;4198189;28;20094;-65
2022/03/23 01:38:52;;;;;;;9.75;2.10;;;;;;;22.33;34.02;102164.56;4198245;28;20090;-65
2022/03/23 01:40:56;;;;;;;10.68;2.70;;;;;;;22.35;33.90;102169.03;4197938;28;20106;-65
2022/03/23 01:42:57;;;;;;;9.07;2.30;;;;;;;22.35;34.08;102163.44;4197223;28;20461;-65
2022/03/23 01:44:59;;;;;;;11.73;2.38;;;;;;;22.33;33.91;102161.75;4197874;28;20025;-65
2022/03/23 01:47:09;;;;;;;12.65;2.80;;;;;;;22.35;33.68;102169.03;4179491;28;20033;-65
2022/03/23 01:49:10;;;;;;;11.10;2.83;;;;;;;22.35;34.02;102166.22;4201079;28;20097;-65
2022/03/23 01:51:12;;;;;;;13.13;2.85;;;;;;;22.35;34.27;102175.44;4197461;28;20032;-66
2022/03/23 01:53:14;;;;;;;14.50;3.08;;;;;;;22.36;33.86;102176.28;4199602;28;20071;-66
2022/03/23 01:55:17;;;;;;;12.93;2.55;;;;;;;22.31;34.00;102169.56;4209010;28;20434;-66
2022/03/23 01:57:20;;;;;;;15.13;2.30;;;;;;;22.35;34.21;102175.44;4197754;28;20454;-66
2022/03/23 01:59:22;;;;;;;11.88;3.03;;;;;;;22.35;33.69;102175.44;4198213;28;20086;-65
2022/03/23 02:01:23;;;;;;;15.27;2.92;;;;;;;22.35;34.29;102174.59;4198104;28;20550;-64
2022/03/23 02:03:26;;;;;;;11.45;3.00;;;;;;;22.35;34.09;102169.03;4198280;28;20345;-66
2022/03/23 02:05:27;;;;;;;15.50;2.47;;;;;;;22.35;33.76;102177.38;4197776;28;20066;-65
2022/03/23 02:07:30;;;;;;;17.00;2.95;;;;;;;22.34;34.05;102170.97;4187878;28;20378;-65
2022/03/23 02:09:32;;;;;;;9.90;2.20;;;;;;;22.35;33.82;102174.59;4181069;28;20041;-64
2022/03/23 02:11:38;;;;;;;11.68;2.97;;;;;;;22.35;34.36;102175.44;4180201;28;20189;-66
2022/03/23 02:13:42;;;;;;;11.88;2.50;;;;;;;22.35;34.09;102174.59;4180153;28;20095;-65
2022/03/23 02:15:44;;;;;;;8.95;2.20;;;;;;;22.32;34.27;102162.88;4180563;28;20063;-66
2022/03/23 02:17:47;;;;;;;9.70;2.50;;;;;;;22.33;34.48;102161.75;4173740;28;20082;-66
2022/03/23 02:19:49;;;;;;;12.15;3.10;;;;;;;22.35;34.68;102155.91;4197304;28;20048;-65
2022/03/23 02:22:10;;;;;;;12.73;2.75;;;;;;;22.32;34.47;102148.94;4197989;28;20517;-65
2022/03/23 02:24:16;;;;;;;11.68;2.58;;;;;;;22.32;34.79;102162.88;4197737;28;20125;-65
2022/03/23 02:26:22;;;;;;;12.90;2.70;;;;;;;22.33;34.92;102158.97;4197096;28;20044;-64
2022/03/23 02:28:26;;;;;;;14.82;2.65;;;;;;;22.36;34.98;102167.91;4196805;28;20102;-65
2022/03/23 02:30:28;;;;;;;11.40;2.20;;;;;;;22.37;35.38;102164.03;4196615;28;20101;-65
2022/03/23 02:32:32;;;;;;;8.95;2.28;;;;;;;22.33;35.30;102155.34;4197111;28;20101;-65
2022/03/23 02:34:37;;;;;;;10.88;2.42;;;;;;;22.30;35.23;102153.91;4197188;28;20032;-64
2022/03/23 02:36:39;;;;;;;5.80;1.93;;;;;;;22.37;34.89;102162.09;4197516;28;20439;-65
2022/03/23 02:38:43;;;;;;;10.68;2.50;;;;;;;22.36;35.34;102153.97;4196616;28;20462;-66
2022/03/23 02:40:45;;;;;;;8.93;2.53;;;;;;;22.37;35.20;102161.25;4197588;28;20113;-65
2022/03/23 02:42:47;;;;;;;11.05;2.45;;;;;;;22.35;34.51;102147.56;4198003;28;20082;-65
2022/03/23 02:44:48;;;;;;;8.43;2.10;;;;;;;22.35;34.68;102141.97;4196302;28;20086;-64
2022/03/23 02:46:50;;;;;;;11.50;2.33;;;;;;;22.34;34.61;102137.50;4196604;28;20557;-64
2022/03/23 02:48:54;;;;;;;7.13;2.40;;;;;;;22.37;34.40;102148.16;4198498;28;20028;-66
2022/03/23 02:50:55;;;;;;;9.38;1.70;;;;;;;22.37;34.30;102137.00;4196920;28;20549;-66
2022/03/23 03:02:24;;;;;;;13.07;2.83;;;;;;;22.41;35.27;102120.59;4197276;28;20098;-65
2022/03/23 03:04:26;;;;;;;8.75;2.05;;;;;;;22.42;35.50;102130.63;4196981;28;20098;-65
2022/03/23 03:06:29;;;;;;;7.47;2.03;;;;;;;22.40;35.62;102124.44;4197215;28;20040;-66
2022/03/23 03:08:47;;;;;;;12.52;1.92;;;;;;;22.43;35.56;102132.31;4196750;28;20037;-65
2022/03/23 03:10:48;;;;;;;7.53;1.98;;;;;;;22.42;35.26;102130.63;4197018;28;20394;-66
2022/03/23 03:12:51;;;;;;;7.22;2.03;;;;;;;22.42;35.27;102133.41;4196535;28;20045;-66
2022/03/23 03:14:52;;;;;;;11.38;2.65;;;;;;;22.41;35.18;102142.91;4197075;28;20480;-65
2022/03/23 03:16:53;;;;;;;8.63;2.15;;;;;;;22.43;35.17;102149.03;4196963;28;20442;-64
2022/03/23 03:18:55;;;;;;;8.23;1.77;;;;;;;22.39;35.41;102142.28;4198042;28;20063;-65
2022/03/23 03:20:56;;;;;;;9.50;1.98;;;;;;;22.42;35.72;102150.16;4197323;28;20557;-65
2022/03/23 03:22:58;;;;;;;8.75;1.85;;;;;;;22.43;35.51;102154.63;4197075;28;20090;-64
2022/03/23 03:24:59;;;;;;;6.25;2.03;;;;;;;22.44;35.53;102156.28;4197644;28;20041;-65
2022/03/23 03:27:00;;;;;;;6.43;1.80;;;;;;;22.43;35.18;102162.97;4197243;28;20089;-64
2022/03/23 03:29:04;;;;;;;6.22;2.20;;;;;;;22.43;35.64;102155.44;4197147;28;20044;-63
2022/03/23 03:31:08;;;;;;;7.25;1.45;;;;;;;22.44;35.30;102168.28;4201480;28;20035;-65
2022/03/23 03:33:09;;;;;;;7.63;2.13;;;;;;;22.42;35.53;102170.50;4212092;28;20044;-65
2022/03/23 03:35:12;;;;;;;8.63;2.58;;;;;;;22.42;35.59;102164.94;4200435;28;20040;-65
2022/03/23 03:37:14;;;;;;;7.10;1.67;;;;;;;22.43;35.47;102172.19;4197644;28;20040;-64
2022/03/23 03:39:15;;;;;;;8.07;1.90;;;;;;;22.43;35.91;102172.19;4197237;28;20037;-65
2022/03/23 03:41:17;;;;;;;8.35;2.30;;;;;;;22.46;35.48;102176.41;4197236;28;20078;-65
2022/03/23 03:43:18;;;;;;;9.20;2.08;;;;;;;22.45;35.69;102183.06;4198040;28;20094;-64
2022/03/23 03:45:19;;;;;;;7.07;2.25;;;;;;;22.43;35.94;102171.34;4181373;28;20045;-65
2022/03/23 03:47:21;;;;;;;5.70;1.60;;;;;;;22.47;35.93;102189.25;4197262;28;20113;-65
2022/03/23 03:49:22;;;;;;;5.00;1.77;;;;;;;22.43;35.12;102180.56;4197589;28;20040;-65
2022/03/23 03:51:24;;;;;;;7.95;1.98;;;;;;;22.43;35.90;102188.09;4198666;28;20082;-64
2022/03/23 03:53:26;;;;;;;6.35;2.17;;;;;;;22.47;36.96;102194.84;4198085;28;20047;-66
2022/03/23 03:55:27;;;;;;;5.05;1.50;;;;;;;22.46;35.52;102198.72;4199259;28;20032;-65
2022/03/23 03:57:29;;;;;;;5.60;1.77;;;;;;;22.47;36.56;102206.81;4199489;28;20036;-65
2022/03/23 03:59:30;;;;;;;6.45;1.60;;;;;;;22.45;36.08;102192.31;4204402;28;20044;-65
2022/03/23 04:01:32;;;;;;;3.80;1.70;;;;;;;22.47;35.75;102203.19;4193387;28;20479;-65
2022/03/23 04:03:34;;;;;;;9.35;1.65;;;;;;;22.46;37.05;102193.16;4210394;28;20372;-64
2022/03/23 04:05:36;;;;;;;10.45;1.55;;;;;;;22.46;36.49;102201.53;4199666;28;20067;-64
2022/03/23 04:07:37;;;;;;;371.42;250.45;;;;;;;22.45;38.01;102195.09;4200178;28;20048;-64
2022/03/23 04:09:39;;;;;;;414.90;300.70;;;;;;;22.47;36.25;102192.03;4200092;28;20070;-65
2022/03/23 04:11:40;;;;;;;165.77;110.20;;;;;;;22.46;34.89;102182.00;4204163;28;20040;-66
2022/03/23 04:13:41;;;;;;;74.90;45.72;;;;;;;22.44;35.15;102173.88;4197712;28;20098;-65
2022/03/23 04:15:43;;;;;;;65.18;37.72;;;;;;;22.46;35.70;102170.84;4197586;28;20041;-65
2022/03/23 04:17:45;;;;;;;49.72;28.85;;;;;;;22.46;35.03;102168.88;4199028;28;20521;-65
2022/03/23 04:19:47;;;;;;;58.28;33.38;;;;;;;22.47;36.08;102180.88;4198108;28;20537;-65
2022/03/23 04:21:48;;;;;;;51.33;32.67;;;;;;;22.47;36.45;102178.09;4181904;28;20033;-66
2022/03/23 04:23:50;;;;;;;41.05;24.60;;;;;;;22.46;35.03;102184.78;4199626;28;20445;-65
2022/03/23 04:25:51;;;;;;;53.40;31.73;;;;;;;22.47;35.92;102180.88;4200041;28;20507;-65
2022/03/23 04:27:57;;;;;;;40.80;24.15;;;;;;;22.45;35.05;102183.94;4200005;28;20044;-65
2022/03/23 04:29:59;;;;;;;48.92;30.08;;;;;;;22.46;37.06;102193.16;4199741;28;20075;-65
2022/03/23 04:32:03;;;;;;;37.55;24.33;;;;;;;22.46;35.66;102187.56;4199143;28;20094;-65
2022/03/23 04:34:05;;;;;;;40.08;27.30;;;;;;;22.46;36.01;102182.84;4200316;28;20048;-66
2022/03/23 04:36:07;;;;;;;36.15;23.27;;;;;;;22.45;35.24;102174.72;4200586;28;20029;-66
2022/03/23 04:38:08;;;;;;;43.85;25.05;;;;;;;22.45;35.78;102180.28;4199147;28;20045;-65
2022/03/23 04:40:14;;;;;;;25.23;15.85;;;;;;;22.44;35.00;102185.03;4199418;28;20048;-65
2022/03/23 04:42:18;;;;;;;28.13;17.75;;;;;;;22.44;34.56;102181.41;4198849;28;20113;-64
2022/03/23 04:44:20;;;;;;;31.33;19.17;;;;;;;22.42;35.10;102175.25;4198601;28;20621;-65
2022/03/23 04:46:21;;;;;;;34.40;21.05;;;;;;;22.43;34.94;102182.50;4181774;28;20053;-65
2022/03/23 04:48:22;;;;;;;27.45;17.83;;;;;;;22.43;35.18;102193.66;4198821;28;20041;-66
2022/03/23 04:50:24;;;;;;;17.27;10.45;;;;;;;22.43;34.72;102191.72;4199244;28;20041;-65
2022/03/23 04:52:29;;;;;;;22.40;13.35;;;;;;;22.42;34.24;102192.81;4198725;28;20090;-65
2022/03/23 04:54:37;;;;;;;24.42;16.08;;;;;;;22.41;34.75;102190.31;4198823;28;20090;-65
2022/03/23 04:56:38;;;;;;;23.92;16.67;;;;;;;22.42;34.58;102197.56;4198350;28;20086;-66
2022/03/23 04:58:41;;;;;;;24.73;11.90;;;;;;;22.42;34.43;102192.00;4198583;28;20040;-65
2022/03/23 05:00:45;;;;;;;24.23;14.52;;;;;;;22.40;34.48;102195.00;4198820;28;20425;-65
2022/03/23 05:02:49;;;;;;;16.88;10.35;;;;;;;22.41;33.50;102202.31;4199245;28;20082;-65
2022/03/23 05:04:51;;;;;;;19.85;13.75;;;;;;;22.42;34.44;102208.72;4198402;28;20041;-64
2022/03/23 05:06:55;;;;;;;22.38;14.25;;;;;;;22.36;34.80;102206.94;4198275;28;20431;-64
2022/03/23 05:08:57;;;;;;;8.45;5.03;;;;;;;22.41;33.47;102207.03;4198724;28;20048;-64
2022/03/23 05:10:58;;;;;;;17.35;11.52;;;;;;;22.41;34.10;102212.63;4198188;28;20507;-64
2022/03/23 05:13:00;;;;;;;16.60;10.95;;;;;;;22.41;33.79;102212.63;4200495;28;20090;-63
2022/03/23 05:15:05;;;;;;;18.60;12.00;;;;;;;22.40;34.63;102213.69;4199104;28;20173;-64
2022/03/23 05:17:07;;;;;;;16.17;9.50;;;;;;;22.39;34.32;102201.69;4197362;28;20040;-64
2022/03/23 05:19:09;;;;;;;17.98;11.45;;;;;;;22.40;35.12;102188.59;4198964;28;20085;-64
2022/03/23 05:21:13;;;;;;;8.65;4.75;;;;;;;22.40;33.40;102194.19;4198174;28;20048;-65
2022/03/23 05:23:15;;;;;;;13.23;8.75;;;;;;;22.39;34.34;102192.50;4202742;28;20094;-64
2022/03/23 05:25:16;;;;;;;18.08;10.48;;;;;;;22.38;33.99;102191.66;4214995;28;20369;-64
2022/03/23 05:27:17;;;;;;;6.55;3.40;;;;;;;22.38;32.99;102196.41;4210174;28;20075;-65
2022/03/23 05:29:19;;;;;;;15.95;8.75;;;;;;;22.37;34.27;102194.72;4197872;28;20049;-65
2022/03/23 05:31:23;;;;;;;16.75;9.93;;;;;;;22.36;33.79;102201.38;4197964;28;20036;-65
2022/03/23 05:33:24;;;;;;;10.43;5.37;;;;;;;22.37;33.07;102203.09;4164605;28;20033;-65
2022/03/23 05:35:26;;;;;;;10.73;6.47;;;;;;;22.37;32.84;102211.44;4198471;28;20086;-65
2022/03/23 05:37:42;;;;;;;10.02;5.53;;;;;;;22.36;32.63;102204.16;4197493;28;20036;-65
2022/03/23 05:39:45;;;;;;;8.25;4.68;;;;;;;22.36;33.72;102182.72;4205051;28;20097;-64
2022/03/23 05:41:46;;;;;;;12.35;7.80;;;;;;;22.36;33.09;102181.84;4215356;28;20525;-65
2022/03/23 05:43:51;;;;;;;11.90;6.40;;;;;;;22.36;33.58;102179.94;4215021;28;20097;-64
2022/03/23 05:45:52;;;;;;;11.48;5.78;;;;;;;22.35;33.53;102180.19;4214878;28;20121;-65
2022/03/23 05:47:54;;;;;;;13.68;8.10;;;;;;;22.30;34.17;102167.84;4212100;28;20036;-64
2022/03/23 05:49:55;;;;;;;11.52;6.60;;;;;;;22.33;33.87;102178.50;4197256;28;20447;-65
2022/03/23 05:51:57;;;;;;;7.93;5.00;;;;;;;22.29;33.55;102177.31;4215043;28;20028;-66
2022/03/23 05:53:58;;;;;;;8.63;4.65;;;;;;;22.31;32.87;102186.28;4212223;28;20441;-66
2022/03/23 05:56:04;;;;;;;5.53;2.95;;;;;;;22.32;32.98;102192.72;4196843;28;20040;-66
2022/03/23 05:58:05;;;;;;;;;;;;;;;22.29;34.18;102185.69;4194701;28;20086;-65
2022/03/23 06:00:08;;;;;;;10.95;4.90;;;;;;;22.35;33.43;102199.69;4196756;28;19966;-65
2022/03/23 06:02:10;;;;;;;9.38;5.72;;;;;;;22.24;33.24;102180.06;4197181;28;20044;-66
2022/03/23 06:04:12;;;;;;;8.23;5.60;;;;;;;22.35;33.96;102194.13;4196856;28;20478;-66
2022/03/23 06:06:16;;;;;;;9.77;5.95;;;;;;;22.30;34.35;102189.31;4210320;28;20449;-65
2022/03/23 06:08:18;;;;;;;7.32;4.63;;;;;;;22.27;33.23;102193.50;4214163;28;20333;-64
2022/03/23 06:10:19;;;;;;;8.80;4.80;;;;;;;22.27;33.05;102199.06;4200946;28;20028;-64
2022/03/23 06:12:23;;;;;;;8.20;5.30;;;;;;;22.27;33.43;102199.06;4197500;28;20037;-65
2022/03/23 06:14:24;;;;;;;4.57;3.22;;;;;;;22.28;32.60;102200.75;4198273;28;20102;-64
2022/03/23 06:16:26;;;;;;;5.60;3.42;;;;;;;22.25;33.32;102201.25;4197552;28;20106;-68
2022/03/23 06:18:27;;;;;;;7.13;4.70;;;;;;;22.26;33.46;102205.72;4196660;28;20102;-64
2022/03/23 06:20:29;;;;;;;4.88;3.13;;;;;;;22.27;33.10;102207.44;4197359;28;20040;-66
2022/03/23 06:22:33;;;;;;;7.32;3.20;;;;;;;22.25;33.24;102203.22;4211384;28;20028;-66
2022/03/23 06:24:34;;;;;;;8.03;4.30;;;;;;;22.27;32.71;102209.38;4214204;28;20556;-66
2022/03/23 06:26:36;;;;;;;5.10;2.72;;;;;;;22.25;32.69;102209.63;4213941;28;20755;-64
2022/03/23 06:28:37;;;;;;;6.15;3.80;;;;;;;22.26;33.31;102216.88;4213968;28;20061;-64
2022/03/23 06:30:38;;;;;;;5.32;3.58;;;;;;;22.25;33.27;102212.41;4214560;28;20044;-63
2022/03/23 06:32:40;;;;;;;4.20;3.22;;;;;;;22.25;33.40;102206.84;4214537;28;20117;-64
2022/03/23 06:34:47;;;;;;;5.80;3.63;;;;;;;22.25;33.49;102192.88;4213965;28;20093;-66
2022/03/23 06:36:49;;;;;;;6.47;3.80;;;;;;;22.24;33.28;102194.00;4214744;28;20540;-66
2022/03/23 06:38:51;;;;;;;4.45;2.97;;;;;;;22.21;33.00;102194.50;4214781;28;20104;-66
2022/03/23 06:40:52;;;;;;;5.70;3.35;;;;;;;22.22;33.18;102199.00;4213889;28;20097;-66
2022/03/23 06:42:53;;;;;;;7.07;2.72;;;;;;;22.22;33.05;102196.22;4214320;28;20085;-66
2022/03/23 06:44:55;;;;;;;3.67;2.30;;;;;;;22.21;32.92;102200.09;4214172;28;20113;-66
2022/03/23 06:46:56;;;;;;;4.22;3.17;;;;;;;22.22;33.64;102199.00;4214630;28;20153;-66
2022/03/23 06:49:07;;;;;;;5.28;2.65;;;;;;;22.22;33.08;102193.44;4214066;28;20438;-66
2022/03/23 06:51:08;;;;;;;4.47;2.75;;;;;;;22.22;32.67;102199.00;4214174;28;20044;-66
2022/03/23 06:53:12;;;;;;;6.82;2.17;;;;;;;22.21;32.76;102202.88;4213336;28;20364;-64
2022/03/23 06:55:14;;;;;;;5.20;3.10;;;;;;;22.22;33.05;102199.00;4213189;28;20117;-65
2022/03/23 06:57:15;;;;;;;4.07;2.20;;;;;;;22.22;32.19;102200.94;4214044;28;20044;-65
2022/03/23 06:59:16;;;;;;;3.05;2.25;;;;;;;22.22;32.55;102209.28;4213190;28;20112;-64
2022/03/23 07:01:18;;;;;;;5.78;3.13;;;;;;;22.21;32.70;102207.63;4213081;28;20036;-65
2022/03/23 07:03:19;;;;;;;4.07;2.10;;;;;;;22.22;32.48;102203.72;4214524;28;20036;-64
2022/03/23 07:05:20;;;;;;;4.18;2.38;;;;;;;22.20;31.87;102203.16;4213892;28;20453;-64
2022/03/23 07:07:21;;;;;;;4.47;2.60;;;;;;;22.20;32.79;102198.41;4198923;28;20541;-65
2022/03/23 07:09:32;;;;;;;3.42;2.20;;;;;;;22.19;32.29;102207.03;4197381;28;20020;-64
2022/03/23 07:11:33;;;;;;;5.65;2.53;;;;;;;22.19;32.59;102193.94;4196386;28;20048;-64
2022/03/23 07:13:35;;;;;;;4.38;2.67;;;;;;;22.20;32.47;102178.06;4196850;28;20041;-65
2022/03/23 07:15:37;;;;;;;3.60;2.22;;;;;;;22.16;32.51;102172.16;4196776;28;20044;-65
2022/03/23 07:17:38;;;;;;;2.47;1.75;;;;;;;22.18;31.71;102181.09;4200977;28;20177;-65
2022/03/23 07:19:39;;;;;;;3.15;1.77;;;;;;;22.18;32.01;102186.69;4213925;28;20040;-65
2022/03/23 07:21:41;;;;;;;2.95;2.15;;;;;;;22.16;32.14;102174.94;4202635;28;20082;-65
2022/03/23 07:23:45;;;;;;;2.78;1.85;;;;;;;22.18;32.37;102186.69;4197886;28;20094;-64
2022/03/23 07:25:46;;;;;;;3.17;1.53;;;;;;;22.17;32.39;102184.97;4196592;28;20033;-64
2022/03/23 07:27:51;;;;;;;2.22;1.80;;;;;;;22.17;32.62;102178.56;4195932;28;20082;-65
2022/03/23 07:29:52;;;;;;;3.65;1.70;;;;;;;22.17;32.23;102182.19;4196670;28;20079;-65
2022/03/23 07:31:54;;;;;;;3.88;2.38;;;;;;;22.17;32.81;102181.34;4199727;28;20056;-65
2022/03/23 07:33:57;;;;;;;2.85;1.63;;;;;;;22.16;32.50;102183.28;4200345;28;20484;-65
2022/03/23 07:35:58;;;;;;;2.58;1.70;;;;;;;22.18;32.23;102180.28;4200287;28;20094;-65
2022/03/23 07:38:00;;;;;;;2.55;1.60;;;;;;;22.17;32.57;102176.63;4200164;28;20078;-65
2022/03/23 07:40:03;;;;;;;2.63;1.70;;;;;;;22.17;32.26;102182.19;4199334;28;20053;-65
2022/03/23 07:42:05;;;;;;;2.47;1.58;;;;;;;22.17;32.36;102167.41;4199566;28;20110;-64
2022/03/23 07:44:06;;;;;;;2.67;1.75;;;;;;;22.15;31.97;102172.41;4200415;28;20086;-65
2022/03/23 07:46:08;;;;;;;2.50;1.67;;;;;;;22.13;31.83;102160.66;4200715;28;20032;-66
2022/03/23 07:48:10;;;;;;;3.97;1.52;;;;;;;22.16;31.68;102162.94;4199865;28;20098;-66
2022/03/23 07:50:11;;;;;;;3.08;1.83;;;;;;;22.15;32.26;102155.69;4199112;28;20082;-64
2022/03/23 07:52:13;;;;;;;3.00;1.33;;;;;;;22.14;31.76;102157.63;4199727;28;20504;-65
2022/03/23 07:54:14;;;;;;;3.03;1.70;;;;;;;22.12;31.79;102159.81;4197443;28;20044;-64
2022/03/23 07:56:15;;;;;;;2.08;1.15;;;;;;;22.14;31.92;102160.44;4200039;28;20090;-65
2022/03/23 07:58:17;;;;;;;1.98;1.60;;;;;;;22.13;32.34;102153.16;4199844;28;20545;-64
2022/03/23 08:00:21;;;;;;;2.78;1.52;;;;;;;22.12;32.15;102148.69;4199161;28;20044;-64
2022/03/23 08:02:26;;;;;;;1.85;1.35;;;;;;;22.13;31.92;102144.81;4199254;28;20045;-64
2022/03/23 08:04:28;;;;;;;1.55;1.20;;;;;;;22.10;31.69;102125.78;4200188;28;20032;-64
2022/03/23 08:06:29;;;;;;;1.80;1.27;;;;;;;22.12;32.31;102131.94;4200070;28;20070;-64
2022/03/23 08:08:30;;;;;;;2.60;1.40;;;;;;;22.12;31.59;102137.53;4199704;28;20032;-65
2022/03/23 08:10:32;;;;;;;2.28;1.73;;;;;;;22.11;31.87;102123.81;4181179;28;20036;-65
2022/03/23 08:12:34;;;;;;;1.98;1.00;;;;;;;22.11;31.41;102124.66;4199725;28;20573;-64
2022/03/23 08:14:35;;;;;;;2.33;1.20;;;;;;;22.10;31.77;102138.88;4183519;28;20041;-66
2022/03/23 08:16:39;;;;;;;1.88;1.02;;;;;;;22.11;31.60;102146.97;4202118;28;20468;-64
2022/03/23 08:18:40;;;;;;;2.45;1.23;;;;;;;22.11;31.69;102146.97;4203750;28;20041;-64
2022/03/23 08:20:42;;;;;;;1.30;1.00;;;;;;;22.11;31.64;102141.38;4203110;28;20098;-64
2022/03/23 08:22:43;;;;;;;1.83;1.00;;;;;;;22.10;32.31;102138.88;4203839;28;20048;-65
2022/03/23 08:24:44;;;;;;;1.92;1.38;;;;;;;22.10;31.77;102139.72;4203839;28;20070;-64
2022/03/23 08:26:47;;;;;;;1.35;1.15;;;;;;;22.08;31.84;102141.91;4205279;28;20077;-64
2022/03/23 08:28:49;;;;;;;2.53;1.30;;;;;;;22.09;31.38;102140.81;4202826;28;20041;-65
2022/03/23 08:30:50;;;;;;;2.45;1.30;;;;;;;22.08;32.24;102148.34;4210861;28;20044;-65
2022/03/23 08:32:52;;;;;;;1.55;1.10;;;;;;;22.08;31.79;102150.25;4215784;28;20039;-64
2022/03/23 08:34:53;;;;;;;1.92;1.33;;;;;;;22.08;32.35;102144.69;4206168;28;20082;-64
2022/03/23 08:36:55;;;;;;;2.38;1.00;;;;;;;22.07;31.13;102135.47;4200606;28;20032;-65
2022/03/23 08:38:56;;;;;;;1.63;0.98;;;;;;;22.07;32.34;102140.22;4199380;28;20045;-64
2022/03/23 08:41:01;;;;;;;1.50;1.00;;;;;;;22.07;32.21;102145.78;4200046;28;20040;-64
2022/03/23 08:43:02;;;;;;;1.65;1.27;;;;;;;22.03;32.45;102142.69;4198125;28;20044;-65
2022/03/23 08:45:07;;;;;;;1.75;1.02;;;;;;;22.04;32.76;102141.59;4198997;28;20041;-64
2022/03/23 08:47:12;;;;;;;1.27;1.08;;;;;;;22.05;32.37;102143.28;4211121;28;20044;-66
2022/03/23 08:49:13;;;;;;;2.13;1.15;;;;;;;22.04;31.79;102136.03;4215736;28;20093;-66
2022/03/23 08:51:16;;;;;;;1.10;1.00;;;;;;;22.04;32.29;102137.97;4215620;28;20098;-66
2022/03/23 08:53:17;;;;;;;1.33;1.20;;;;;;;22.04;32.02;102136.03;4216015;28;20032;-66
2022/03/23 08:55:19;;;;;;;1.88;1.27;;;;;;;22.04;31.87;102140.75;4215661;28;20024;-66
2022/03/23 08:57:22;;;;;;;1.23;0.90;;;;;;;22.04;31.93;102135.19;4198288;28;20040;-66
2022/03/23 08:59:26;;;;;;;1.90;1.10;;;;;;;22.01;31.83;102124.53;4215678;28;20105;-66
2022/03/23 09:01:28;;;;;;;1.40;1.00;;;;;;;22.04;32.53;102118.47;4213116;28;20039;-66
2022/03/23 09:03:29;;;;;;;2.03;1.10;;;;;;;22.02;31.91;102124.28;4196592;28;20075;-66
2022/03/23 09:05:31;;;;;;;1.38;0.93;;;;;;;21.99;31.92;102115.59;4215365;28;20438;-66
2022/03/23 09:07:32;;;;;;;1.13;1.00;;;;;;;;;;4213642;28;20576;-66
2022/03/23 09:09:33;;;;;;;1.85;1.05;;;;;;;22.01;31.94;102118.97;4200162;28;20074;-64
2022/03/23 09:11:35;;;;;;;1.02;0.90;;;;;;;22.01;32.10;102124.53;4199559;28;20098;-66
2022/03/23 09:13:38;;;;;;;1.83;1.05;;;;;;;22.00;31.64;102111.72;4198343;28;20086;-65
2022/03/23 09:15:43;;;;;;;1.15;0.90;;;;;;;22.00;31.87;102120.09;4199232;28;20074;-65
2022/03/23 09:17:54;;;;;;;1.43;1.00;;;;;;;21.99;32.09;102124.81;4198455;28;20118;-66
2022/03/23 09:19:55;;;;;;;1.60;1.02;;;;;;;21.99;31.67;102126.72;4201095;28;20319;-65
2022/03/23 09:21:59;;;;;;;0.90;0.70;;;;;;;21.99;31.72;102132.31;4215185;28;20094;-64
2022/03/23 09:24:00;;;;;;;1.48;0.70;;;;;;;21.97;31.24;102140.09;4215944;28;20081;-64
2022/03/23 09:26:02;;;;;;;1.00;0.80;;;;;;;21.98;31.73;102144.56;4215662;28;20024;-64
2022/03/23 09:28:03;;;;;;;1.50;0.70;;;;;;;21.98;31.53;102139.00;4214946;28;20069;-64
2022/03/23 09:30:06;;;;;;;3.72;0.82;;;;;;;21.97;32.08;102146.50;4214782;28;20074;-65
2022/03/23 09:32:11;;;;;;;2.85;0.88;;;;;;;21.95;31.81;102145.09;4215562;28;20036;-65
2022/03/23 09:34:12;;;;;;;1.30;0.80;;;;;;;21.98;31.62;102158.50;4215931;28;20027;-64
2022/03/23 09:38:35;;;;;;;1.25;0.80;;;;;;;21.97;31.10;102176.34;4215625;28;20520;-65